sim
Sign-in with your pilot id or email,
or register
Callsign
Passwort

Schedule Details

Flight Number: DLH2087 (2)
Departure: Hamburg Airport (EDDH) at 06:35
Arrival: Munich Airport (EDDM) at 07:50
Route: Lufthansa Passenger Schedule. Enter filed route here before submitting Pirep.

Weather Information
Getting current METAR information for EDDH 262150Z 07010KT 9999 FEW008 BKN014 17/15 Q0992 TEMPO BKN015
Getting current METAR information for EDDM 262150Z 23016KT 9999 OVC022 07/03 Q1002 NOSIG

Schedule Frequency

Route Map